Westside, Iowa
Current Conditions -  °F | °C
As of 8:35 PM on Sunday 21 Dec 2014 (Local Time) from KDNS Reporting Station
Haze Haze  
Wind Chill: 33°   Ceiling: 500
Heat Index: 41°   Visibility: 3mi
Dew Point: 41°   Wind: 14mph
Humidity: 100%   Direction: 180°S
Pressure: 29.66"   Gusts: 23mph
Location:  42.06°N, 95.1°W
Report Text: KDNS 220235Z AUTO 18012G20KT 3SM BR OVC005 05/05 A2966 RMK AO2
Loading
Personal Weather Stations






























Interactive Weather Map New forecast layout! Learn more

10-Day Weather Forecast

Advertisements
Track Severe Weather on mobile